Time;durP1;ratioP1;P1;durP2;ratioP2;P2;SDS_P1;SDS_P2;PMS_P1;PMS_P2;Temp;Humidity;BMP_temperature;BMP_pressure;BME280_temperature;BME280_humidity;BME280_pressure;Samples;Min_cycle;Max_cycle;Signal;HPM_P1;HPM_P2
2021/07/04 00:00:56;;;;;;;7.97;7.18;;;17.40;98.40;;;;;;6291854;22;20204;-93
2021/07/04 00:03:23;;;;;;;7.95;7.15;;;17.40;98.40;;;;;;6292297;22;20199;-93
2021/07/04 00:08:31;;;;;;;8.90;8.02;;;17.20;98.80;;;;;;6262394;22;20190;-93
2021/07/04 00:16:45;;;;;;;7.90;7.15;;;17.20;99.70;;;;;;6268438;22;20220;-94
2021/07/04 00:19:33;;;;;;;11.82;10.60;;;17.20;99.60;;;;;;6260396;22;20176;-94
2021/07/04 00:22:00;;;;;;;9.02;7.40;;;17.30;99.50;;;;;;6288763;22;20205;-94
2021/07/04 00:24:27;;;;;;;8.18;7.40;;;17.30;99.40;;;;;;6275660;22;20180;-93
2021/07/04 00:26:55;;;;;;;8.60;7.65;;;17.30;99.40;;;;;;6287821;22;20204;-93
2021/07/04 00:29:43;;;;;;;8.30;7.40;;;17.40;99.30;;;;;;6211207;22;20176;-94
2021/07/04 00:32:10;;;;;;;8.20;7.35;;;17.40;99.40;;;;;;6292040;22;20648;-94
2021/07/04 00:34:37;;;;;;;8.23;7.43;;;17.30;99.40;;;;;;6267071;22;20555;-93
2021/07/04 00:37:04;;;;;;;8.73;7.75;;;17.30;99.40;;;;;;6291168;22;20528;-94
2021/07/04 00:39:31;;;;;;;9.40;7.97;;;17.20;99.60;;;;;;6291411;22;20188;-93
2021/07/04 00:44:41;;;;;;;10.20;8.07;;;17.20;99.90;;;;;;6282847;22;20218;-94
2021/07/04 01:01:12;;;;;;;9.35;7.82;;;17.10;99.90;;;;;;6113019;22;20213;-93
2021/07/04 01:06:21;;;;;;;8.63;7.78;;;17.10;99.90;;;;;;6260613;22;20563;-94
2021/07/04 01:11:29;;;;;;;8.95;7.70;;;17.20;99.90;;;;;;6218854;22;20662;-93
2021/07/04 01:27:29;;;;;;;8.73;7.53;;;17.30;99.90;;;;;;6253629;22;20176;-93
2021/07/04 01:32:41;;;;;;;8.85;7.35;;;17.30;99.90;;;;;;6269448;22;20183;-93
2021/07/04 01:35:29;;;;;;;8.35;7.47;;;17.30;99.90;;;;;;6259921;22;20274;-93
2021/07/04 01:47:57;;;;;;;8.15;7.35;;;17.30;99.90;;;;;;6254015;22;20179;-93
2021/07/04 02:07:26;;;;;;;8.77;7.97;;;17.20;99.90;;;;;;6273591;22;20178;-93
2021/07/04 02:21:07;;;;;;;7.95;7.20;;;17.10;99.90;;;;;;6256072;22;20206;-94
2021/07/04 02:23:38;;;;;;;7.65;6.85;;;17.00;99.90;;;;;;6284931;22;20238;-93
2021/07/04 02:26:06;;;;;;;7.65;6.95;;;17.10;99.90;;;;;;6242997;22;20231;-93
2021/07/04 02:28:33;;;;;;;7.80;6.95;;;17.10;99.90;;;;;;6260319;22;20564;-94
2021/07/04 02:36:49;;;;;;;8.30;7.50;;;17.20;99.90;;;;;;6186535;22;20183;-94
2021/07/04 02:39:17;;;;;;;7.50;6.80;;;17.20;99.90;;;;;;6289466;22;20183;-92
2021/07/04 02:44:26;;;;;;;7.88;6.93;;;17.10;99.90;;;;;;6265754;22;20164;-93
2021/07/04 02:46:54;;;;;;;7.90;7.03;;;17.10;99.90;;;;;;6285368;22;20648;-93
2021/07/04 02:52:26;;;;;;;8.10;7.35;;;17.20;99.90;;;;;;6291479;22;20183;-93
2021/07/04 02:57:34;;;;;;;8.60;7.70;;;17.30;99.80;;;;;;6276617;22;20180;-94
2021/07/04 03:00:02;;;;;;;8.02;7.22;;;17.20;99.80;;;;;;6285411;22;20176;-93
2021/07/04 03:02:29;;;;;;;10.25;7.10;;;17.20;99.90;;;;;;6284926;22;20200;-93
2021/07/04 03:08:01;;;;;;;8.48;7.38;;;17.20;99.90;;;;;;6288922;22;20179;-93
2021/07/04 03:10:49;;;;;;;8.55;7.63;;;17.10;99.90;;;;;;6230342;22;20207;-93
2021/07/04 03:16:14;;;;;;;8.65;7.47;;;17.10;99.90;;;;;;6269292;22;20196;-93
2021/07/04 03:18:42;;;;;;;8.07;7.18;;;17.20;99.90;;;;;;6222565;22;20187;-93
2021/07/04 03:26:57;;;;;;;8.40;7.53;;;17.20;99.90;;;;;;6254485;22;20240;-93
2021/07/04 03:29:25;;;;;;;7.70;7.00;;;17.10;99.90;;;;;;6289498;22;20179;-93
2021/07/04 03:31:52;;;;;;;8.35;7.43;;;17.10;99.90;;;;;;6287723;22;20208;-93
2021/07/04 03:34:19;;;;;;;7.82;7.13;;;17.10;99.90;;;;;;6257690;22;20188;-94
2021/07/04 03:39:29;;;;;;;8.98;6.82;;;17.20;99.90;;;;;;6271735;22;20168;-93
2021/07/04 03:44:37;;;;;;;8.25;7.45;;;17.10;99.90;;;;;;6272259;22;20718;-92
2021/07/04 03:47:05;;;;;;;9.63;8.07;;;17.10;99.90;;;;;;6213121;22;20192;-92
2021/07/04 03:55:17;;;;;;;9.10;7.00;;;17.30;99.90;;;;;;6246258;22;20196;-92
2021/07/04 03:57:44;;;;;;;8.07;7.18;;;17.30;99.90;;;;;;6262054;22;20176;-92
2021/07/04 04:02:55;;;;;;;8.25;6.78;;;17.30;99.90;;;;;;6247461;22;20196;-93
2021/07/04 04:05:22;;;;;;;9.90;8.00;;;17.30;99.90;;;;;;6236133;22;20200;-92
2021/07/04 04:07:50;;;;;;;7.97;7.28;;;17.30;99.90;;;;;;6260806;22;20512;-92
2021/07/04 04:10:21;;;;;;;8.50;7.68;;;17.40;99.90;;;;;;6282183;22;20196;-92
2021/07/04 04:15:29;;;;;;;8.57;7.63;;;17.50;99.90;;;;;;6269371;22;20226;-92
2021/07/04 04:17:57;;;;;;;9.77;6.95;;;17.60;99.50;;;;;;6287105;22;20192;-92
2021/07/04 04:26:06;;;;;;;8.75;6.78;;;17.60;99.20;;;;;;6236755;22;20200;-92
2021/07/04 04:28:33;;;;;;;11.95;7.60;;;17.60;99.30;;;;;;6286418;22;20184;-93
2021/07/04 04:34:17;;;;;;;8.35;7.53;;;17.70;99.50;;;;;;6252424;23;20201;-92
2021/07/04 04:36:44;;;;;;;8.68;7.82;;;17.70;99.00;;;;;;6250910;22;20211;-92
2021/07/04 04:41:53;;;;;;;8.25;7.18;;;17.80;99.00;;;;;;6265853;22;20247;-92
2021/07/04 04:44:21;;;;;;;8.50;7.70;;;17.80;99.20;;;;;;6282730;22;20207;-92
2021/07/04 04:46:48;;;;;;;8.02;7.05;;;17.80;99.20;;;;;;6282236;22;20224;-92
2021/07/04 04:49:15;;;;;;;7.03;6.32;;;17.70;99.10;;;;;;6273493;22;20656;-92
2021/07/04 04:51:43;;;;;;;8.88;7.57;;;17.70;99.40;;;;;;6284779;22;20702;-91
2021/07/04 05:04:45;;;;;;;7.13;6.43;;;17.90;98.20;;;;;;6266737;22;20165;-92
2021/07/04 05:09:53;;;;;;;6.97;6.28;;;17.90;98.30;;;;;;6229957;22;20172;-92
2021/07/04 05:21:07;;;;;;;7.07;6.38;;;17.90;98.50;;;;;;6159003;23;20222;-92
2021/07/04 05:23:34;;;;;;;6.78;6.18;;;17.90;98.20;;;;;;6193441;22;20222;-92
2021/07/04 05:26:01;;;;;;;8.65;6.35;;;17.90;97.60;;;;;;6255008;22;20211;-92
2021/07/04 05:31:13;;;;;;;6.60;6.00;;;18.10;97.60;;;;;;6191500;23;20214;-92
2021/07/04 05:34:10;;;;;;;6.63;5.80;;;18.20;97.70;;;;;;6189336;23;20579;-92
2021/07/04 05:42:58;;;;;;;5.95;5.45;;;18.60;96.20;;;;;;6279831;22;20578;-93
2021/07/04 05:45:27;;;;;;;6.13;5.63;;;18.60;96.00;;;;;;6285727;22;20205;-94
2021/07/04 05:50:40;;;;;;;6.88;6.15;;;18.60;95.90;;;;;;6254856;22;20227;-91
2021/07/04 05:53:07;;;;;;;6.00;5.50;;;18.60;95.70;;;;;;6277697;22;20519;-92
2021/07/04 05:55:34;;;;;;;7.68;5.78;;;18.70;96.10;;;;;;6276480;22;20275;-92
2021/07/04 05:58:01;;;;;;;6.55;5.95;;;18.80;95.70;;;;;;6277350;22;20628;-92
2021/07/04 06:00:28;;;;;;;5.88;5.38;;;18.80;95.00;;;;;;6276229;22;20235;-93
2021/07/04 06:02:57;;;;;;;6.28;5.68;;;19.00;95.00;;;;;;6277563;22;20192;-92
2021/07/04 06:05:25;;;;;;;6.30;5.70;;;19.30;95.00;;;;;;6225926;22;20201;-92
2021/07/04 06:07:53;;;;;;;6.10;5.50;;;19.40;94.80;;;;;;6250961;22;20704;-91
2021/07/04 06:10:22;;;;;;;5.78;5.28;;;19.50;94.20;;;;;;6279274;22;20223;-91
2021/07/04 06:12:49;;;;;;;5.88;5.38;;;19.50;93.20;;;;;;6283484;22;20629;-92
2021/07/04 06:15:17;;;;;;;6.15;5.57;;;19.60;93.00;;;;;;6254548;22;20211;-92
2021/07/04 06:17:47;;;;;;;5.57;5.07;;;19.60;92.50;;;;;;6287271;22;20200;-92
2021/07/04 06:23:10;;;;;;;77.10;41.95;;;19.70;92.80;;;;;;6268692;22;20273;-93
2021/07/04 06:25:37;;;;;;;35.47;21.48;;;19.80;92.60;;;;;;6277535;22;20272;-93
2021/07/04 06:28:05;;;;;;;78.97;70.70;;;19.90;92.40;;;;;;6277146;22;20172;-92
2021/07/04 06:30:34;;;;;;;218.65;195.70;;;20.00;92.00;;;;;;6277509;22;20542;-92
2021/07/04 06:33:01;;;;;;;69.72;58.47;;;20.20;91.80;;;;;;6253957;22;20185;-92
2021/07/04 06:35:29;;;;;;;88.10;78.45;;;20.20;91.20;;;;;;6282389;22;20236;-92
2021/07/04 06:37:57;;;;;;;14.50;13.00;;;20.30;91.00;;;;;;6282934;22;20654;-93
2021/07/04 06:43:05;;;;;;;14.90;13.32;;;20.40;90.80;;;;;;6245442;22;20192;-92
2021/07/04 06:45:32;;;;;;;9.18;7.53;;;20.40;90.50;;;;;;6257706;22;20223;-92
2021/07/04 06:47:59;;;;;;;9.13;8.25;;;20.40;90.30;;;;;;6284955;22;20169;-93
2021/07/04 06:50:28;;;;;;;11.73;10.52;;;20.30;90.40;;;;;;6284695;22;20204;-92
2021/07/04 06:55:40;;;;;;;5.40;4.90;;;20.60;89.00;;;;;;6230271;23;20516;-93
2021/07/04 06:58:07;;;;;;;5.38;4.88;;;20.50;87.20;;;;;;6256457;23;20176;-91
2021/07/04 07:00:35;;;;;;;4.97;4.57;;;20.50;88.90;;;;;;6253333;23;20205;-91
2021/07/04 07:03:11;;;;;;;13.48;12.13;;;20.40;88.30;;;;;;6251115;23;20671;-92
2021/07/04 07:05:58;;;;;;;5.97;4.85;;;20.10;90.70;;;;;;6249635;23;20205;-91
2021/07/04 07:08:31;;;;;;;5.90;5.30;;;20.00;90.60;;;;;;6224094;23;20174;-92
2021/07/04 07:10:59;;;;;;;6.25;5.65;;;19.90;91.00;;;;;;6247780;23;20276;-92
2021/07/04 07:13:28;;;;;;;8.75;7.95;;;20.00;91.20;;;;;;6251360;23;20208;-90
2021/07/04 07:15:55;;;;;;;6.15;5.50;;;20.20;90.90;;;;;;6253203;23;20249;-91
2021/07/04 07:18:22;;;;;;;6.22;5.63;;;20.30;90.30;;;;;;6254485;23;20193;-92
2021/07/04 07:20:50;;;;;;;5.53;5.03;;;20.30;91.00;;;;;;6206364;23;20210;-91
2021/07/04 07:23:20;;;;;;;6.10;5.60;;;20.50;90.80;;;;;;6245961;23;20197;-89
2021/07/04 07:25:51;;;;;;;5.40;4.70;;;20.60;90.10;;;;;;6256201;23;20205;-89
2021/07/04 07:28:27;;;;;;;4.63;4.22;;;20.80;88.30;;;;;;6253799;23;20256;-90
2021/07/04 07:30:54;;;;;;;4.25;3.85;;;20.90;86.40;;;;;;6253910;23;20212;-91
2021/07/04 07:33:21;;;;;;;4.38;4.00;;;21.00;82.20;;;;;;6255192;23;20220;-91
2021/07/04 07:35:51;;;;;;;3.55;3.20;;;21.10;81.60;;;;;;6250646;23;20201;-91
2021/07/04 07:38:19;;;;;;;4.78;4.38;;;21.00;83.20;;;;;;6224559;23;20181;-91
2021/07/04 07:40:47;;;;;;;4.20;3.80;;;20.90;84.00;;;;;;6203983;23;20267;-91
2021/07/04 07:46:49;;;;;;;4.85;4.15;;;20.70;83.20;;;;;;6220273;23;20545;-93
2021/07/04 08:00:42;;;;;;;4.38;3.90;;;20.40;88.50;;;;;;6249636;23;20234;-92
2021/07/04 08:03:13;;;;;;;4.13;3.72;;;20.10;90.20;;;;;;6255761;23;20193;-91
2021/07/04 08:05:40;;;;;;;3.80;3.50;;;20.20;90.70;;;;;;6230031;23;20572;-92
2021/07/04 08:08:09;;;;;;;4.13;3.83;;;20.10;88.00;;;;;;6219397;23;20181;-91
2021/07/04 08:10:37;;;;;;;4.20;3.80;;;19.90;88.60;;;;;;6243164;23;20740;-92
2021/07/04 08:13:06;;;;;;;4.63;3.42;;;20.20;89.70;;;;;;6248169;23;20176;-92
2021/07/04 08:15:54;;;;;;;4.85;4.00;;;20.40;85.60;;;;;;6228840;23;20209;-92
2021/07/04 08:18:24;;;;;;;3.92;3.63;;;21.10;85.10;;;;;;6224515;23;20200;-92
2021/07/04 08:20:53;;;;;;;4.00;3.60;;;21.50;81.90;;;;;;6230215;23;20220;-90
2021/07/04 08:23:36;;;;;;;3.50;3.20;;;21.50;78.20;;;;;;6255280;23;20190;-93
2021/07/04 08:26:06;;;;;;;3.53;3.22;;;21.40;79.60;;;;;;6245509;23;20199;-93
2021/07/04 08:31:17;;;;;;;4.07;3.75;;;21.10;83.20;;;;;;6241857;23;20271;-93
2021/07/04 08:33:45;;;;;;;3.92;3.58;;;21.30;81.70;;;;;;6245067;23;20260;-91
2021/07/04 08:36:12;;;;;;;4.00;3.70;;;21.60;81.40;;;;;;6193764;23;20284;-90
2021/07/04 08:38:39;;;;;;;3.85;3.55;;;22.00;82.20;;;;;;6244504;23;20162;-91
2021/07/04 08:41:07;;;;;;;4.57;3.45;;;22.60;77.80;;;;;;6193455;23;20208;-92
2021/07/04 08:43:37;;;;;;;3.40;3.13;;;22.80;74.20;;;;;;6217005;23;20923;-90
2021/07/04 08:48:46;;;;;;;3.22;2.92;;;26.40;51.80;;;;;;6246383;23;20169;-91
2021/07/04 08:51:13;;;;;;;2.92;2.72;;;28.90;37.50;;;;;;6252629;23;20201;-90
2021/07/04 08:53:41;;;;;;;3.70;3.40;;;28.40;34.90;;;;;;6247706;23;20224;-89
2021/07/04 08:56:09;;;;;;;2.45;2.35;;;31.30;29.30;;;;;;6244562;23;20573;-91
2021/07/04 08:58:38;;;;;;;2.90;2.70;;;32.30;23.60;;;;;;6218502;23;20263;-91
2021/07/04 09:01:19;;;;;;;2.65;2.45;;;31.60;23.60;;;;;;6217318;23;20207;-90
2021/07/04 09:03:48;;;;;;;2.75;2.35;;;30.20;24.70;;;;;;6245511;23;21061;-90
2021/07/04 09:06:35;;;;;;;2.50;2.30;;;29.40;27.20;;;;;;6243806;23;20243;-88
2021/07/04 09:09:21;;;;;;;2.67;2.47;;;29.50;27.40;;;;;;6243381;23;20169;-91
2021/07/04 09:11:56;;;;;;;2.47;2.28;;;30.30;26.60;;;;;;6242717;23;20204;-89
2021/07/04 09:14:36;;;;;;;2.35;2.20;;;31.80;25.10;;;;;;6243635;23;20639;-89
2021/07/04 09:17:04;;;;;;;3.20;2.90;;;31.90;22.80;;;;;;6217490;23;20212;-89
2021/07/04 09:19:32;;;;;;;2.60;2.40;;;32.10;20.30;;;;;;6217356;23;20173;-92
2021/07/04 09:22:04;;;;;;;2.50;2.40;;;32.10;22.70;;;;;;6218423;23;20204;-92
2021/07/04 09:24:35;;;;;;;2.60;2.40;;;31.60;22.70;;;;;;6244888;23;20231;-91
2021/07/04 09:27:04;;;;;;;2.95;2.72;;;31.20;22.40;;;;;;6217702;23;20224;-92
2021/07/04 09:29:48;;;;;;;2.75;2.55;;;31.20;24.20;;;;;;6243458;23;20207;-90
2021/07/04 09:32:20;;;;;;;2.80;2.60;;;30.10;25.10;;;;;;6244302;23;20207;-90
2021/07/04 09:34:59;;;;;;;2.65;2.45;;;29.40;26.20;;;;;;6244926;23;20168;-90
2021/07/04 09:37:35;;;;;;;2.63;2.40;;;30.60;25.10;;;;;;6244681;23;20640;-92
2021/07/04 09:51:25;;;;;;;2.90;2.70;;;31.90;23.50;;;;;;6148165;23;20696;-90
2021/07/04 10:02:15;;;;;;;3.28;2.97;;;32.40;20.80;;;;;;6222413;23;20171;-89
2021/07/04 10:05:12;;;;;;;3.20;3.00;;;33.10;20.90;;;;;;6244854;23;20262;-90
2021/07/04 10:07:39;;;;;;;3.15;2.95;;;33.70;18.60;;;;;;6243893;23;20267;-90
2021/07/04 10:10:07;;;;;;;3.53;3.33;;;33.60;20.00;;;;;;6218719;23;20226;-91
2021/07/04 10:15:15;;;;;;;3.70;3.40;;;34.30;19.80;;;;;;6235536;23;20208;-90
2021/07/04 10:17:45;;;;;;;3.63;3.40;;;34.80;17.20;;;;;;6257452;23;20177;-92
2021/07/04 10:22:58;;;;;;;3.00;2.80;;;32.30;21.60;;;;;;6243010;23;20206;-91
2021/07/04 10:25:25;;;;;;;2.90;2.70;;;31.40;22.40;;;;;;6217632;23;20227;-91
2021/07/04 10:27:53;;;;;;;3.00;2.80;;;29.90;25.70;;;;;;6247035;23;20494;-92
2021/07/04 10:30:22;;;;;;;3.03;2.80;;;29.60;26.90;;;;;;6221343;23;20256;-91
2021/07/04 10:33:09;;;;;;;2.85;2.65;;;29.60;27.40;;;;;;6246367;23;20256;-89
2021/07/04 10:35:49;;;;;;;4.78;3.30;;;28.40;27.30;;;;;;6245604;23;20991;-89
2021/07/04 10:38:17;;;;;;;3.40;2.88;;;28.10;27.70;;;;;;6223938;23;20189;-89
2021/07/04 10:44:04;;;;;;;2.50;2.30;;;28.10;28.20;;;;;;6220809;23;20685;-88
2021/07/04 10:47:15;;;;;;;2.40;2.30;;;27.90;28.30;;;;;;6246155;23;20200;-88
2021/07/04 10:49:48;;;;;;;4.15;2.58;;;28.00;28.50;;;;;;6250705;23;20565;-87
2021/07/04 10:52:19;;;;;;;2.60;2.40;;;28.00;30.10;;;;;;6245789;23;20231;-89
2021/07/04 10:54:52;;;;;;;2.50;2.30;;;27.20;30.80;;;;;;6245306;23;20606;-89
2021/07/04 10:57:23;;;;;;;2.30;2.20;;;27.10;32.30;;;;;;6244466;23;20319;-90
2021/07/04 11:00:20;;;;;;;2.72;2.53;;;26.60;34.00;;;;;;6244328;23;20260;-90
2021/07/04 11:02:53;;;;;;;2.70;2.50;;;26.60;31.70;;;;;;6244668;23;20220;-91
2021/07/04 11:05:47;;;;;;;2.47;2.22;;;27.60;35.80;;;;;;6246279;23;20212;-90
2021/07/04 11:11:28;;;;;;;2.63;2.42;;;28.50;27.60;;;;;;6243525;23;20207;-93
2021/07/04 11:14:09;;;;;;;2.60;2.40;;;27.50;31.00;;;;;;6248626;23;20193;-91
2021/07/04 11:16:37;;;;;;;2.85;2.65;;;27.40;34.60;;;;;;6248290;23;20208;-91
2021/07/04 11:31:50;;;;;;;2.92;2.40;;;25.90;36.80;;;;;;6247809;23;20223;-92
2021/07/04 11:37:08;;;;;;;3.17;2.90;;;25.20;39.30;;;;;;6202048;23;20197;-89
2021/07/04 11:39:35;;;;;;;2.80;2.60;;;25.00;41.40;;;;;;6249743;23;20566;-90
2021/07/04 11:42:02;;;;;;;2.75;2.55;;;25.00;42.20;;;;;;6246275;23;20280;-90
2021/07/04 11:51:06;;;;;;;2.60;2.40;;;26.20;37.00;;;;;;6164894;23;20143;-94
2021/07/04 11:56:26;;;;;;;2.92;2.72;;;26.40;37.10;;;;;;6162061;23;20173;-90
2021/07/04 11:58:56;;;;;;;4.30;3.30;;;25.70;39.00;;;;;;6248035;23;20181;-90
2021/07/04 12:22:40;;;;;;;5.07;4.68;;;25.30;42.50;;;;;;6128084;23;20560;-90
2021/07/04 12:28:34;;;;;;;3.30;2.75;;;25.40;41.80;;;;;;6247237;23;20169;-91
2021/07/04 12:31:01;;;;;;;3.70;3.35;;;25.50;40.20;;;;;;6221722;23;20162;-91
2021/07/04 12:33:29;;;;;;;4.18;3.78;;;25.90;39.10;;;;;;6248990;23;20200;-91
2021/07/04 12:36:12;;;;;;;2.92;2.72;;;25.90;40.60;;;;;;6248529;23;20648;-90
2021/07/04 13:00:41;;;;;;;3.45;3.15;;;25.90;39.50;;;;;;6184750;23;20250;-92
2021/07/04 13:03:09;;;;;;;3.20;2.90;;;25.70;39.50;;;;;;6232081;22;20819;-89
2021/07/04 13:05:39;;;;;;;3.08;2.88;;;25.50;39.40;;;;;;6275661;22;20228;-89
2021/07/04 13:08:12;;;;;;;3.00;2.80;;;25.40;37.80;;;;;;6282733;22;20200;-88
2021/07/04 13:10:39;;;;;;;2.88;2.67;;;25.40;38.90;;;;;;6274746;22;20204;-88
2021/07/04 13:13:12;;;;;;;3.38;2.88;;;25.30;40.00;;;;;;6275990;22;20479;-88
2021/07/04 13:15:39;;;;;;;3.13;2.92;;;25.10;40.30;;;;;;6246667;22;20247;-88
2021/07/04 13:18:07;;;;;;;3.70;2.63;;;25.30;40.70;;;;;;6276013;22;20255;-88
2021/07/04 13:20:34;;;;;;;3.38;3.08;;;25.40;41.00;;;;;;6273821;22;20200;-88
2021/07/04 13:23:01;;;;;;;3.85;2.60;;;25.30;40.00;;;;;;6275299;22;20292;-89
2021/07/04 13:25:30;;;;;;;3.00;2.80;;;25.50;41.00;;;;;;6274597;22;20283;-89
2021/07/04 13:28:03;;;;;;;3.30;3.00;;;25.30;43.60;;;;;;6276553;22;20180;-88
2021/07/04 13:33:28;;;;;;;3.33;3.13;;;25.10;41.80;;;;;;6276611;22;20177;-89
2021/07/04 13:35:55;;;;;;;3.13;2.92;;;25.20;44.30;;;;;;6250892;22;20303;-89
2021/07/04 13:38:22;;;;;;;3.60;3.30;;;25.10;45.40;;;;;;6251107;22;20176;-87
2021/07/04 13:40:52;;;;;;;3.95;3.40;;;25.00;46.60;;;;;;6276446;22;20236;-89
2021/07/04 13:43:28;;;;;;;3.35;2.90;;;24.70;45.40;;;;;;6252039;22;20172;-89
2021/07/04 13:51:23;;;;;;;2.88;2.67;;;24.40;49.20;;;;;;6244708;22;20193;-90
2021/07/04 13:53:50;;;;;;;2.97;2.78;;;24.30;45.60;;;;;;6249944;22;20220;-93
2021/07/04 13:56:17;;;;;;;3.42;3.13;;;24.10;46.60;;;;;;6238545;22;20270;-92
2021/07/04 13:58:44;;;;;;;5.53;3.95;;;24.10;46.00;;;;;;6277235;22;20203;-92
2021/07/04 14:04:40;;;;;;;5.82;5.25;;;24.00;50.00;;;;;;6185052;23;20271;-90
2021/07/04 14:07:09;;;;;;;3.33;3.03;;;24.30;51.50;;;;;;6186181;23;20206;-92
2021/07/04 14:12:39;;;;;;;2.95;2.72;;;24.20;46.40;;;;;;6186015;23;20167;-92
2021/07/04 14:20:53;;;;;;;3.85;3.25;;;24.80;45.30;;;;;;6097397;23;20172;-92
2021/07/04 14:24:08;;;;;;;3.20;3.00;;;24.90;46.80;;;;;;6107904;23;20314;-92
2021/07/04 14:30:13;;;;;;;3.10;2.90;;;25.00;44.80;;;;;;6184841;23;20200;-90
2021/07/04 14:39:30;;;;;;;3.13;2.83;;;24.70;44.80;;;;;;6186782;23;20247;-92
2021/07/04 14:41:58;;;;;;;6.70;5.32;;;24.60;44.30;;;;;;6192752;22;20251;-89
2021/07/04 14:44:25;;;;;;;3.20;2.90;;;24.50;45.10;;;;;;6277342;22;20239;-92
2021/07/04 14:46:52;;;;;;;3.28;3.08;;;24.40;46.60;;;;;;6277728;22;20176;-92
2021/07/04 14:49:51;;;;;;;3.33;2.83;;;24.10;46.10;;;;;;6278614;22;20247;-91
2021/07/04 15:00:19;;;;;;;4.25;3.80;;;23.50;55.90;;;;;;6262530;22;20238;-92
2021/07/04 15:02:49;;;;;;;3.30;3.00;;;23.50;56.60;;;;;;6246349;22;20179;-91
2021/07/04 15:05:18;;;;;;;3.55;3.25;;;23.30;58.90;;;;;;6274662;22;20268;-91
2021/07/04 15:10:29;;;;;;;2.80;2.60;;;23.50;55.40;;;;;;6276715;22;20204;-92
2021/07/04 15:12:58;;;;;;;2.75;2.53;;;23.70;52.80;;;;;;6283646;22;20177;-92
2021/07/04 15:18:10;;;;;;;9.90;9.02;;;23.90;53.80;;;;;;6254567;22;20247;-91
2021/07/04 15:21:03;;;;;;;5.95;5.45;;;24.10;53.70;;;;;;6284695;22;20188;-93
2021/07/04 15:23:31;;;;;;;3.78;2.83;;;24.10;54.60;;;;;;6282305;22;20192;-91
2021/07/04 15:26:02;;;;;;;3.05;2.80;;;24.10;55.80;;;;;;6281787;22;20181;-91
2021/07/04 15:31:14;;;;;;;3.45;3.15;;;23.70;59.30;;;;;;6276070;22;20196;-91
2021/07/04 15:33:42;;;;;;;3.25;3.05;;;23.70;59.20;;;;;;6252537;22;20173;-92
2021/07/04 15:36:09;;;;;;;3.40;3.10;;;23.60;59.20;;;;;;6223425;22;20197;-92
2021/07/04 15:39:15;;;;;;;4.38;2.97;;;23.50;59.10;;;;;;6249812;22;20256;-92
2021/07/04 15:47:06;;;;;;;3.00;2.80;;;23.60;57.80;;;;;;6252113;22;20168;-92
2021/07/04 15:49:54;;;;;;;13.35;5.30;;;23.50;58.10;;;;;;6254264;22;20169;-92
2021/07/04 15:52:21;;;;;;;6.05;3.63;;;23.20;58.80;;;;;;6278915;22;20255;-92
2021/07/04 15:54:48;;;;;;;3.05;2.75;;;23.20;58.80;;;;;;6279854;22;20667;-91
2021/07/04 15:57:15;;;;;;;2.65;2.45;;;23.20;58.80;;;;;;6281630;22;20212;-92
2021/07/04 15:59:53;;;;;;;3.20;2.90;;;23.30;59.00;;;;;;6279414;22;20299;-92
2021/07/04 16:02:20;;;;;;;3.63;2.72;;;23.20;58.80;;;;;;6253464;22;20204;-92
2021/07/04 16:04:47;;;;;;;2.50;2.30;;;23.30;58.90;;;;;;6281458;22;20224;-92
2021/07/04 16:07:17;;;;;;;2.92;2.45;;;23.20;58.80;;;;;;6256235;22;20581;-92
2021/07/04 16:09:44;;;;;;;2.45;2.25;;;23.10;58.70;;;;;;6280911;22;20172;-91
2021/07/04 16:12:12;;;;;;;2.60;2.40;;;23.00;62.20;;;;;;6279137;22;20247;-92
2021/07/04 16:14:39;;;;;;;3.47;2.63;;;23.00;62.30;;;;;;6279573;22;20910;-91
2021/07/04 16:22:55;;;;;;;2.05;1.85;;;22.20;65.80;;;;;;6263363;22;20207;-93
2021/07/04 16:28:31;;;;;;;2.40;2.20;;;22.00;60.30;;;;;;6199727;23;20269;-93
2021/07/04 16:34:15;;;;;;;4.88;4.20;;;21.70;60.10;;;;;;6074079;23;20173;-91
2021/07/04 16:39:30;;;;;;;1.90;1.80;;;21.40;63.60;;;;;;6156466;23;20172;-91
2021/07/04 16:50:35;;;;;;;3.20;1.90;;;20.60;75.60;;;;;;6261556;22;20202;-91
2021/07/04 16:53:03;;;;;;;2.40;1.90;;;20.40;77.80;;;;;;6285181;22;20193;-90
2021/07/04 16:55:32;;;;;;;2.17;1.77;;;20.20;81.00;;;;;;6257638;22;20254;-90
2021/07/04 16:58:00;;;;;;;2.20;1.92;;;19.90;84.90;;;;;;6260396;22;20199;-89
2021/07/04 17:00:31;;;;;;;2.17;1.98;;;20.00;84.80;;;;;;6279570;22;20217;-88
2021/07/04 17:02:59;;;;;;;2.30;2.10;;;19.80;85.70;;;;;;6256674;22;20179;-91
2021/07/04 17:05:27;;;;;;;3.65;2.30;;;19.70;86.40;;;;;;6276398;22;20746;-90
2021/07/04 17:07:56;;;;;;;2.25;2.00;;;19.60;87.20;;;;;;6276959;22;20172;-90
2021/07/04 17:10:24;;;;;;;2.30;1.88;;;19.40;87.90;;;;;;6248405;22;20204;-89
2021/07/04 17:15:34;;;;;;;5.65;1.92;;;19.10;91.10;;;;;;6269430;22;20271;-93
2021/07/04 17:18:01;;;;;;;4.70;2.03;;;18.80;92.10;;;;;;6224574;22;20224;-93
2021/07/04 17:20:30;;;;;;;4.63;2.35;;;18.60;92.30;;;;;;6274766;22;20351;-94
2021/07/04 17:25:44;;;;;;;4.72;1.98;;;18.00;94.30;;;;;;6255349;22;20591;-93
2021/07/04 17:28:12;;;;;;;3.85;2.10;;;17.80;94.90;;;;;;6253299;22;20176;-93
2021/07/04 17:30:39;;;;;;;6.50;2.08;;;17.70;95.10;;;;;;6228057;22;20204;-93
2021/07/04 17:35:48;;;;;;;2.63;2.10;;;17.50;96.70;;;;;;6237151;22;20224;-92
2021/07/04 17:46:47;;;;;;;3.38;2.40;;;17.50;97.30;;;;;;6269305;22;20662;-93
2021/07/04 17:49:14;;;;;;;2.90;1.80;;;17.50;96.70;;;;;;6266797;22;20172;-92
2021/07/04 17:52:02;;;;;;;2.97;1.90;;;17.30;96.80;;;;;;6269207;22;20620;-93
2021/07/04 17:54:50;;;;;;;2.20;1.98;;;17.20;97.40;;;;;;6257329;22;20197;-92
2021/07/04 18:00:41;;;;;;;3.53;3.00;;;16.90;97.40;;;;;;6280138;22;20204;-91
2021/07/04 18:03:10;;;;;;;8.57;5.22;;;17.00;98.20;;;;;;6253921;22;20180;-92
2021/07/04 18:05:47;;;;;;;27.52;23.13;;;17.10;99.00;;;;;;6259688;22;20220;-91
2021/07/04 18:08:15;;;;;;;20.45;18.25;;;17.20;98.80;;;;;;6248386;22;20184;-92
2021/07/04 18:10:55;;;;;;;5.97;4.85;;;17.30;99.00;;;;;;6278993;22;20196;-91
2021/07/04 18:13:25;;;;;;;2.33;1.95;;;17.30;98.30;;;;;;6279231;22;20535;-92
2021/07/04 18:19:17;;;;;;;4.28;2.20;;;17.10;98.10;;;;;;6279768;22;20140;-91
2021/07/04 18:22:04;;;;;;;2.10;1.90;;;17.00;98.40;;;;;;6262830;22;20506;-91
2021/07/04 18:24:37;;;;;;;5.55;3.47;;;16.90;98.70;;;;;;6278869;22;20204;-91
2021/07/04 18:31:06;;;;;;;7.78;5.50;;;17.00;99.30;;;;;;6278755;22;20204;-91
2021/07/04 18:34:19;;;;;;;7.80;4.00;;;17.00;98.70;;;;;;6280881;22;20517;-91
2021/07/04 18:39:59;;;;;;;7.53;4.88;;;16.90;98.20;;;;;;6275906;22;20175;-91
2021/07/04 18:43:12;;;;;;;5.63;4.40;;;16.80;98.10;;;;;;6275394;22;20515;-91
2021/07/04 18:45:42;;;;;;;2.95;2.40;;;16.80;98.50;;;;;;6277389;22;20200;-91
2021/07/04 18:48:22;;;;;;;3.03;2.58;;;16.70;97.80;;;;;;6277596;22;20172;-91
2021/07/04 18:50:49;;;;;;;4.72;3.95;;;16.70;98.00;;;;;;6276537;22;20705;-92
2021/07/04 18:53:18;;;;;;;2.83;2.30;;;16.60;98.60;;;;;;6249684;22;20220;-92
2021/07/04 18:55:46;;;;;;;4.07;2.92;;;16.60;98.60;;;;;;6270413;22;20276;-92
2021/07/04 18:58:33;;;;;;;4.60;3.45;;;16.50;98.70;;;;;;6234810;22;20513;-91
2021/07/04 19:01:01;;;;;;;3.17;2.35;;;16.50;98.60;;;;;;6275707;22;20224;-91
2021/07/04 19:03:28;;;;;;;5.45;4.70;;;16.50;98.40;;;;;;6225718;22;20255;-92
2021/07/04 19:05:58;;;;;;;4.90;3.55;;;16.40;99.20;;;;;;6265091;22;20232;-92
2021/07/04 19:11:10;;;;;;;3.13;2.83;;;16.50;98.70;;;;;;6273245;22;20208;-92
2021/07/04 19:13:39;;;;;;;3.28;2.78;;;16.60;98.40;;;;;;6274312;22;20710;-92
2021/07/04 19:16:08;;;;;;;4.10;3.25;;;16.50;97.90;;;;;;6248070;22;20204;-91
2021/07/04 19:19:01;;;;;;;3.40;3.10;;;16.50;97.90;;;;;;6257829;22;20177;-92
2021/07/04 19:21:29;;;;;;;3.90;2.30;;;16.40;97.90;;;;;;6248658;22;20238;-93
2021/07/04 19:26:40;;;;;;;2.70;2.50;;;16.20;98.30;;;;;;6259892;22;20208;-92
2021/07/04 19:29:07;;;;;;;3.20;2.60;;;16.20;98.60;;;;;;6256031;22;20172;-92
2021/07/04 19:31:35;;;;;;;2.60;2.20;;;16.20;98.60;;;;;;6274354;22;20220;-92
2021/07/04 19:34:03;;;;;;;2.80;2.40;;;16.20;98.40;;;;;;6277913;22;20192;-92
2021/07/04 19:36:31;;;;;;;3.50;2.13;;;16.20;98.40;;;;;;6224532;22;20537;-93
2021/07/04 19:39:00;;;;;;;2.47;2.28;;;16.20;98.30;;;;;;6277778;22;20196;-92
2021/07/04 19:41:27;;;;;;;3.30;2.45;;;16.20;98.70;;;;;;6223907;22;20200;-93
2021/07/04 19:43:55;;;;;;;2.90;2.63;;;16.10;98.40;;;;;;6277107;22;20196;-92
2021/07/04 19:46:28;;;;;;;3.00;2.10;;;16.10;98.80;;;;;;6276804;22;20243;-92
2021/07/04 19:48:55;;;;;;;2.63;2.03;;;16.20;98.70;;;;;;6280216;22;20271;-93
2021/07/04 19:51:23;;;;;;;2.92;2.28;;;16.20;98.40;;;;;;6277138;22;20212;-92
2021/07/04 19:53:52;;;;;;;2.60;2.08;;;16.20;98.80;;;;;;6251686;22;20200;-91
2021/07/04 19:59:02;;;;;;;2.13;1.92;;;16.20;98.50;;;;;;6269643;22;20789;-92
2021/07/04 20:01:29;;;;;;;2.63;2.42;;;16.20;98.40;;;;;;6277245;22;20226;-92
2021/07/04 20:04:08;;;;;;;2.78;2.10;;;16.10;98.50;;;;;;6277973;22;20188;-92